Jump to content

  •  

FEDEX FLIGHT FX171 FLOWN ON 06-02-2017 BY CAPTAIN TYLER HANUS

Pilot StatsCaptain Tyler Hanus (LDP525) • 262.7 total hours • 63 total flights [View Logbook]
FLIGHT DETAILS
StatusReceived and approved on 2017-06-02 at 18:06:10
Origin AirportMemphis Intl (KMEM) • Memphis, Tennessee, United States (341 feet MSL)
Filed Flight PlanKMEM RICKX Q66 LIT J14 KOMMA J6 KLUBB J14 DWINE J6 IRW J78 CRUSR J14 PNH J6 TCC J78 ABQ J18 BOLIC J102 CHEKR J18 FORPE KPHX
Destination AirportPhoenix Sky Harbor Intl (KPHX) • Phoenix, Arizona, United States (1,135 feet MSL)
Alternate AirportMemorial Airfield (34AZ) • Chandler, Arizona, United States (1,185 feet MSL)
AirlineFedEx
AircraftBoeing 777-200 Freighter (77F / B777-200F)
FS Aircraft UsedPMDG 777-FS2 FedEx Express
Cruising AltitudeFL340
Distance Flown1,096 nautical miles
Cargo Onboard123,300 lbs (90.85% full)
DEPARTURE DETAILS
Time Out13:57:43
Taxi Data537,001 lbs total with 101,901 lbs of fuel onboard
Takeoff Data14:12:03 (14 minutes after leaving gate/ramp) • 535,328 lbs total • 5° pitch at 154 knots
Departure METARKMEM 021754Z 15008G15KT 10SM SCT040 BKN120 BKN250 28/19 A3005 RMK AO2 SLP173 60000 T02780189 10283 20211 58005
ARRIVAL DETAILS
Landing Data14:55:48 • 491,489 lbs total • 4° pitch doing 129 knots at a rate of -306.81 feet/minute with 55,943 lbs of fuel onboard
Time In15:00:05 (4 minutes after landing)
Ramp Weight491,043 lbs total
Total Fuel Used45,958 lbs
Total Block Time02:58:14 (3 hours) while 19 minutes were spent on the ground
Arrival METARKPHX 022151Z 24005KT 10SM FEW090 38/02 A2973 RMK AO2 SLP048 T03780017
MISCELLANEOUS DETAILS
LiveDISPATCH Version4.8.3.1
FS Version
FSUIPC Version4.96
OS VersionWindows 7 32-bit
Screen Resolution1360 x 768
Pilot's CommentsNo Comments Reported
FLIGHT MAP